createdAt,value
2019-04-27T00:03:44.871Z,99.9
2019-04-27T00:08:46.963Z,99.9
2019-04-27T00:13:49.450Z,99.9
2019-04-27T00:23:54.356Z,99.9
2019-04-27T00:28:56.792Z,99.9
2019-04-27T00:33:59.163Z,99.9
2019-04-27T00:39:01.674Z,99.9
2019-04-27T00:44:04.160Z,99.9
2019-04-27T00:49:06.570Z,99.9
2019-04-27T00:54:09.174Z,99.9
2019-04-27T00:59:11.408Z,99.9
2019-04-27T01:09:16.290Z,99.9
2019-04-27T01:14:18.737Z,99.9
2019-04-27T01:19:21.130Z,99.9
2019-04-27T01:24:23.580Z,99.9
2019-04-27T01:29:26.066Z,99.9
2019-04-27T01:34:29.492Z,99.9
2019-04-27T01:39:30.922Z,99.9
2019-04-27T01:44:33.345Z,99.9
2019-04-27T01:49:35.801Z,99.9
2019-04-27T01:54:39.247Z,99.9
2019-04-27T01:59:40.726Z,99.9
2019-04-27T02:04:43.119Z,99.9
2019-04-27T02:09:45.749Z,99.9
2019-04-27T02:14:49.050Z,99.9
2019-04-27T02:19:50.445Z,99.9
2019-04-27T02:24:53.293Z,99.9
2019-04-27T02:29:55.316Z,99.9
2019-04-27T02:34:59.813Z,99.9
2019-04-27T02:40:00.452Z,99.9
2019-04-27T02:50:05.229Z,99.9
2019-04-27T02:55:09.510Z,99.9
2019-04-27T03:00:10.532Z,99.9
2019-04-27T03:05:13.055Z,99.9
2019-04-27T03:10:14.857Z,99.9
2019-04-27T03:15:17.331Z,99.9
2019-04-27T03:20:20.269Z,99.9
2019-04-27T03:25:22.178Z,99.9
2019-04-27T03:30:24.638Z,99.9
2019-04-27T03:35:31.993Z,99.9
2019-04-27T03:45:32.052Z,99.9
2019-04-27T03:50:34.345Z,99.9
2019-04-27T03:55:39.684Z,99.9
2019-04-27T04:00:39.907Z,99.9
2019-04-27T04:05:41.668Z,99.9
2019-04-27T04:10:44.103Z,99.9
2019-04-27T04:15:46.540Z,99.9
2019-04-27T04:20:50.486Z,99.9
2019-04-27T04:30:53.850Z,99.9
2019-04-27T04:35:56.326Z,99.9
2019-04-27T04:40:59.368Z,99.9
2019-04-27T04:46:01.270Z,99.9
2019-04-27T04:51:03.624Z,99.9
2019-04-27T04:56:06.180Z,99.9
2019-04-27T05:06:10.998Z,99.9
2019-04-27T05:11:13.498Z,99.9
2019-04-27T05:16:15.823Z,99.9
2019-04-27T05:21:18.571Z,99.9
2019-04-27T05:26:20.893Z,99.9
2019-04-27T05:31:23.148Z,99.9
2019-04-27T05:36:25.694Z,99.9
2019-04-27T05:41:31.069Z,99.9
2019-04-27T05:46:35.365Z,99.9
2019-04-27T05:51:37.041Z,99.9
2019-04-27T05:56:35.425Z,99.9
2019-04-27T06:01:38.875Z,99.9
2019-04-27T06:06:40.239Z,99.9
2019-04-27T06:11:42.690Z,99.9
2019-04-27T06:16:45.117Z,99.9
2019-04-27T06:21:47.562Z,99.9
2019-04-27T06:26:50.057Z,99.9
2019-04-27T06:31:52.456Z,99.9
2019-04-27T06:36:54.909Z,99.9
2019-04-27T06:41:59.012Z,99.9
2019-04-27T06:47:00.276Z,99.9
2019-04-27T06:52:02.189Z,99.9
2019-04-27T06:57:04.706Z,99.9
2019-04-27T07:02:08.686Z,99.9
2019-04-27T07:07:09.887Z,99.9
2019-04-27T07:12:11.951Z,99.9
2019-04-27T07:17:14.607Z,99.9
2019-04-27T07:22:16.924Z,99.9
2019-04-27T07:27:21.258Z,99.9
2019-04-27T07:32:21.730Z,99.9
2019-04-27T07:37:24.286Z,99.9
2019-04-27T07:42:26.636Z,99.9
2019-04-27T07:52:31.481Z,99.9
2019-04-27T07:57:33.902Z,99.9
2019-04-27T08:02:36.553Z,99.9
2019-04-27T08:07:39.215Z,99.9
2019-04-27T08:12:41.295Z,99.9
2019-04-27T08:17:43.733Z,99.9
2019-04-27T08:22:46.164Z,99.9
2019-04-27T08:27:49.301Z,99.9
2019-04-27T08:32:50.996Z,99.9
2019-04-27T08:37:53.535Z,99.9
2019-04-27T08:42:55.938Z,99.9
2019-04-27T08:47:59.436Z,99.9
2019-04-27T08:53:00.898Z,99.9
2019-04-27T08:58:03.234Z,99.9
2019-04-27T09:03:05.977Z,98.4
2019-04-27T09:08:08.693Z,95.8
2019-04-27T09:13:10.634Z,94.7
2019-04-27T09:18:12.975Z,94.8
2019-04-27T09:23:15.429Z,92.9
2019-04-27T09:28:20.073Z,92
2019-04-27T09:33:22.223Z,81.9
2019-04-27T09:38:22.730Z,80.4
2019-04-27T09:43:26.357Z,84
2019-04-27T09:48:27.713Z,78.7
2019-04-27T09:53:30.128Z,75.6
2019-04-27T09:58:32.506Z,71.2
2019-04-27T10:03:36.009Z,70.8
2019-04-27T10:08:37.399Z,70.1
2019-04-27T10:13:40.051Z,66
2019-04-27T10:18:42.340Z,67.8
2019-04-27T10:23:46.839Z,70.5
2019-04-27T10:28:47.317Z,64.2
2019-04-27T10:33:50.125Z,62.2
2019-04-27T10:38:52.057Z,61.5
2019-04-27T10:43:54.494Z,64.3
2019-04-27T10:48:56.970Z,64.9
2019-04-27T10:53:59.318Z,61
2019-04-27T10:59:01.798Z,58.4
2019-04-27T11:04:05.921Z,58
2019-04-27T11:09:06.843Z,58.1
2019-04-27T11:14:09.114Z,57.3
2019-04-27T11:19:11.643Z,57.1
2019-04-27T11:24:14.105Z,55.6
2019-04-27T11:29:16.421Z,54
2019-04-27T11:34:19.142Z,55.1
2019-04-27T11:39:21.413Z,57.4
2019-04-27T11:44:25.316Z,56.9
2019-04-27T11:49:26.288Z,56.6
2019-04-27T11:54:28.906Z,57.3
2019-04-27T11:59:31.096Z,58.4
2019-04-27T12:04:33.820Z,52.8
2019-04-27T12:09:35.963Z,51
2019-04-27T12:14:38.407Z,48.4
2019-04-27T12:19:40.847Z,47.2
2019-04-27T12:24:43.331Z,45.3
2019-04-27T12:29:47.262Z,42.5
2019-04-27T12:34:48.479Z,41.7
2019-04-27T12:39:50.832Z,43.1
2019-04-27T12:44:53.085Z,40.9
2019-04-27T12:49:57.353Z,39.9
2019-04-27T12:54:57.964Z,38.3
2019-04-27T13:00:00.385Z,39.6
2019-04-27T13:05:03.159Z,41.3
2019-04-27T13:10:05.747Z,42.9
2019-04-27T13:15:07.711Z,43
2019-04-27T13:20:10.137Z,44.4
2019-04-27T13:25:12.557Z,43.2
2019-04-27T13:30:16.388Z,42.8
2019-04-27T13:35:17.809Z,41.2
2019-04-27T13:40:19.891Z,42.2
2019-04-27T13:45:22.332Z,42.6
2019-04-27T13:50:24.754Z,42.9
2019-04-27T13:55:27.275Z,43
2019-04-27T14:00:29.643Z,43.3
2019-04-27T14:05:32.425Z,43.1
2019-04-27T14:10:34.540Z,43.9
2019-04-27T14:15:38.792Z,44
2019-04-27T14:20:39.402Z,44.3
2019-04-27T14:25:41.956Z,44.6
2019-04-27T14:30:44.293Z,45.2
2019-04-27T14:35:47.948Z,45.7
2019-04-27T14:40:50.284Z,46
2019-04-27T14:45:51.627Z,45.5
2019-04-27T14:50:54.090Z,44.9
2019-04-27T14:55:58.409Z,44.5
2019-04-27T15:00:58.946Z,44.6
2019-04-27T15:06:01.714Z,47.5
2019-04-27T15:16:07.967Z,40
2019-04-27T15:21:10.249Z,36.3
2019-04-27T15:26:11.221Z,36.5
2019-04-27T15:31:22.181Z,38.1
2019-04-27T15:36:19.215Z,40.2
2019-04-27T15:41:19.540Z,42.9
2019-04-27T15:46:20.898Z,45.5
2019-04-27T15:51:23.398Z,47.1
2019-04-27T15:56:26.177Z,48.3
2019-04-27T16:01:29.582Z,49.1
2019-04-27T16:06:31.018Z,50.1
2019-04-27T16:11:33.096Z,51.7
2019-04-27T16:16:35.545Z,49.4
2019-04-27T16:21:39.702Z,47.2
2019-04-27T16:26:41.839Z,44.1
2019-04-27T16:31:42.850Z,42.4
2019-04-27T16:36:45.629Z,41.4
2019-04-27T16:41:49.829Z,42.2
2019-04-27T16:46:50.265Z,43.3
2019-04-27T16:51:52.945Z,43.9
2019-04-27T16:57:02.416Z,44.3
2019-04-27T17:01:57.579Z,44.3
2019-04-27T17:07:00.281Z,44.8
2019-04-27T17:12:02.438Z,45.4
2019-04-27T17:17:08.626Z,46.4
2019-04-27T17:22:10.330Z,47.9
2019-04-27T17:27:11.545Z,47.9
2019-04-27T17:32:12.172Z,48.4
2019-04-27T17:37:15.022Z,48.9
2019-04-27T17:42:18.508Z,49.4
2019-04-27T17:47:25.452Z,50
2019-04-27T17:52:21.969Z,50
2019-04-27T17:57:26.455Z,50.5
2019-04-27T18:07:30.133Z,50.7
2019-04-27T18:12:31.669Z,50.9
2019-04-27T18:17:34.187Z,51.2
2019-04-27T18:22:37.802Z,51.5
2019-04-27T18:27:38.999Z,51.9
2019-04-27T18:32:41.421Z,52.1
2019-04-27T18:37:43.911Z,52.4
2019-04-27T18:42:46.385Z,52.6
2019-04-27T18:47:48.776Z,52.7
2019-04-27T18:52:51.249Z,52.9
2019-04-27T18:57:54.428Z,53.4
2019-04-27T19:02:56.074Z,53.8
2019-04-27T19:13:00.988Z,54.9
2019-04-27T19:18:03.406Z,55.3
2019-04-27T19:23:05.829Z,55.8
2019-04-27T19:28:08.653Z,56.6
2019-04-27T19:33:10.682Z,56.9
2019-04-27T19:38:13.235Z,57.5
2019-04-27T19:43:15.589Z,58.1
2019-04-27T19:48:18.262Z,58.5
2019-04-27T19:53:20.556Z,59
2019-04-27T19:58:23.022Z,59.4
2019-04-27T20:03:25.373Z,59.9
2019-04-27T20:08:27.886Z,61
2019-04-27T20:13:30.371Z,62.5
2019-04-27T20:18:32.674Z,64
2019-04-27T20:23:35.100Z,65.3
2019-04-27T20:28:38.565Z,66.3
2019-04-27T20:33:41.579Z,68.2
2019-04-27T20:38:42.459Z,74.2
2019-04-27T20:43:44.914Z,80.8
2019-04-27T20:48:47.351Z,80.3
2019-04-27T20:53:51.574Z,81.6
2019-04-27T20:58:52.531Z,84.2
2019-04-27T21:03:54.630Z,84.7
2019-04-27T21:08:57.061Z,87.5
2019-04-27T21:14:00.995Z,86.4
2019-04-27T21:19:04.883Z,86.3
2019-04-27T21:24:04.782Z,86.8
2019-04-27T21:29:07.375Z,87.2
2019-04-27T21:34:09.542Z,88
2019-04-27T21:39:11.682Z,87.3
2019-04-27T21:44:14.175Z,87.7
2019-04-27T21:49:16.652Z,87.6
2019-04-27T21:54:19.097Z,87.6
2019-04-27T21:59:21.831Z,87.7
2019-04-27T22:04:23.882Z,88
2019-04-27T22:09:26.346Z,88.4
2019-04-27T22:14:28.832Z,88.4
2019-04-27T22:19:31.299Z,88.7
2019-04-27T22:24:33.669Z,89.5
2019-04-27T22:29:36.099Z,90.2
2019-04-27T22:34:38.536Z,90.4
2019-04-27T22:39:40.984Z,91.2
2019-04-27T22:49:45.870Z,91.1
2019-04-27T22:54:48.343Z,91
2019-04-27T22:59:50.842Z,90.8
2019-04-27T23:04:53.172Z,90.8
2019-04-27T23:09:55.610Z,90.4
2019-04-27T23:14:58.045Z,90.4
2019-04-27T23:20:01.314Z,90.3
2019-04-27T23:25:02.974Z,90.1
2019-04-27T23:30:05.438Z,89.9
2019-04-27T23:35:07.813Z,89.6
2019-04-27T23:40:11.110Z,88.9
2019-04-27T23:45:12.782Z,89.3
2019-04-27T23:50:15.286Z,88.7
2019-04-27T23:55:17.625Z,88.2
